createdAt,value
2018-12-15T00:03:29.030Z,59.22
2018-12-15T00:08:42.057Z,57.37
2018-12-15T00:13:54.447Z,57.49
2018-12-15T00:19:08.066Z,56.21
2018-12-15T00:24:20.742Z,55.73
2018-12-15T00:29:34.362Z,55.71
2018-12-15T00:34:46.753Z,55.01
2018-12-15T00:40:00.236Z,54.43
2018-12-15T00:45:17.408Z,54.30
2018-12-15T00:50:31.031Z,55.52
2018-12-15T00:55:43.049Z,56.80
2018-12-15T01:00:55.549Z,55.41
2018-12-15T01:06:08.832Z,55.64
2018-12-15T01:11:20.434Z,54.39
2018-12-15T01:16:33.518Z,55.63
2018-12-15T01:21:45.239Z,56.69
2018-12-15T01:26:58.034Z,56.41
2018-12-15T01:32:10.800Z,55.76
2018-12-15T01:37:24.529Z,56.76
2018-12-15T01:42:37.287Z,57.46
2018-12-15T01:47:50.677Z,58.17
2018-12-15T01:53:16.828Z,58.45
2018-12-15T01:58:30.749Z,58.60
2018-12-15T02:03:42.247Z,58.42
2018-12-15T02:08:55.064Z,57.87
2018-12-15T02:14:07.458Z,57.87
2018-12-15T02:19:21.081Z,58.08
2018-12-15T02:24:33.348Z,57.55
2018-12-15T02:29:47.051Z,57.07
2018-12-15T02:34:59.568Z,57.13
2018-12-15T02:40:16.961Z,56.47
2018-12-15T02:45:28.929Z,56.91
2018-12-15T02:50:41.742Z,56.76
2018-12-15T02:57:53.766Z,57.15
2018-12-15T03:03:28.692Z,56.82
2018-12-15T03:08:42.060Z,57.21
2018-12-15T03:13:53.930Z,58.93
2018-12-15T03:19:14.040Z,59.43
2018-12-15T03:24:25.688Z,60.01
2018-12-15T03:29:38.691Z,60.84
2018-12-15T03:34:50.053Z,60.91
2018-12-15T03:40:02.568Z,60.23
2018-12-15T03:47:56.196Z,58.09
2018-12-15T03:53:06.782Z,58.36
2018-12-15T03:58:19.798Z,58.67
2018-12-15T04:03:31.900Z,58.87
2018-12-15T04:08:44.664Z,58.73
2018-12-15T04:13:56.725Z,58.79
2018-12-15T04:19:09.762Z,58.69
2018-12-15T04:24:20.675Z,58.87
2018-12-15T04:29:33.831Z,59.04
2018-12-15T04:34:45.585Z,58.49
2018-12-15T04:40:46.715Z,58.91
2018-12-15T04:45:59.956Z,58.96
2018-12-15T04:51:12.403Z,59.33
2018-12-15T04:56:26.681Z,59.57
2018-12-15T05:01:37.762Z,59.82
2018-12-15T05:06:50.745Z,60.69
2018-12-15T05:12:02.702Z,61.08
2018-12-15T05:17:16.366Z,60.97
2018-12-15T05:22:27.787Z,61.18
2018-12-15T05:27:42.670Z,61.69
2018-12-15T05:32:53.335Z,61.23
2018-12-15T05:38:06.582Z,61.19
2018-12-15T05:43:17.698Z,61.20
2018-12-15T05:45:47.597Z,61.46
2018-12-15T05:50:59.045Z,61.33
2018-12-15T05:56:12.741Z,61.25
2018-12-15T06:01:23.729Z,61.52
2018-12-15T06:03:54.013Z,61.49
2018-12-15T06:09:08.695Z,61.08
2018-12-15T06:14:20.678Z,60.84
2018-12-15T06:19:32.558Z,60.58
2018-12-15T06:24:43.677Z,60.67
2018-12-15T06:29:56.223Z,60.90
2018-12-15T06:35:09.337Z,60.40
2018-12-15T06:40:22.389Z,59.88
2018-12-15T06:45:33.830Z,59.59
2018-12-15T06:50:46.688Z,59.87
2018-12-15T06:55:59.725Z,60.00
2018-12-15T07:01:09.668Z,59.58
2018-12-15T07:06:22.655Z,59.70
2018-12-15T07:11:35.931Z,60.22
2018-12-15T07:16:49.454Z,59.44
2018-12-15T07:22:02.686Z,59.33
2018-12-15T07:27:15.905Z,59.52
2018-12-15T07:32:27.671Z,59.48
2018-12-15T07:37:39.336Z,59.84
2018-12-15T07:42:51.554Z,59.72
2018-12-15T07:45:21.563Z,59.48
2018-12-15T07:50:34.379Z,59.02
2018-12-15T07:55:46.040Z,59.12
2018-12-15T08:00:57.059Z,59.24
2018-12-15T08:06:09.790Z,59.17
2018-12-15T08:12:26.331Z,59.31
2018-12-15T08:14:56.569Z,59.87
2018-12-15T08:20:12.501Z,59.54
2018-12-15T08:25:23.333Z,59.54
2018-12-15T08:30:36.942Z,59.64
2018-12-15T08:35:48.653Z,59.72
2018-12-15T08:41:00.766Z,59.82
2018-12-15T08:46:18.424Z,59.43
2018-12-15T08:51:31.250Z,59.92
2018-12-15T08:56:43.811Z,59.73
2018-12-15T09:01:55.580Z,59.65
2018-12-15T09:07:08.850Z,60.08
2018-12-15T09:12:20.723Z,60.21
2018-12-15T09:20:15.890Z,60.11
2018-12-15T09:25:28.001Z,60.59
2018-12-15T09:30:41.929Z,60.75
2018-12-15T09:35:54.712Z,60.96
2018-12-15T09:41:06.244Z,60.89
2018-12-15T09:46:19.564Z,61.01
2018-12-15T09:51:30.643Z,61.02
2018-12-15T09:56:43.652Z,61.75
2018-12-15T10:01:55.669Z,61.54
2018-12-15T10:04:25.886Z,61.46
2018-12-15T10:09:39.002Z,61.70
2018-12-15T10:14:50.040Z,61.61
2018-12-15T10:20:03.716Z,61.61
2018-12-15T10:25:16.885Z,61.73
2018-12-15T10:30:34.909Z,61.66
2018-12-15T10:35:46.830Z,61.22
2018-12-15T10:40:58.862Z,60.90
2018-12-15T10:46:12.672Z,60.89
2018-12-15T10:54:05.241Z,60.38
2018-12-15T10:59:18.394Z,60.46
2018-12-15T11:04:30.712Z,60.07
2018-12-15T11:09:44.777Z,59.77
2018-12-15T11:17:35.686Z,59.78
2018-12-15T11:22:47.671Z,59.45
2018-12-15T11:28:00.810Z,59.06
2018-12-15T11:33:11.949Z,58.49
2018-12-15T11:42:04.697Z,58.34
2018-12-15T11:47:17.839Z,58.13
2018-12-15T11:52:29.932Z,58.50
2018-12-15T11:57:45.255Z,58.52
2018-12-15T12:02:59.035Z,57.71
2018-12-15T12:08:11.795Z,56.83
2018-12-15T12:13:23.438Z,56.32
2018-12-15T12:18:36.467Z,56.40
2018-12-15T12:23:48.567Z,54.84
2018-12-15T12:29:01.249Z,55.75
2018-12-15T12:33:32.810Z,55.48
2018-12-15T12:38:45.670Z,55.80
2018-12-15T12:43:57.748Z,56.36
2018-12-15T12:49:10.649Z,56.87
2018-12-15T12:54:22.407Z,57.47
2018-12-15T12:59:35.372Z,58.05
2018-12-15T13:04:46.323Z,58.27
2018-12-15T13:09:59.472Z,58.60
2018-12-15T13:15:11.824Z,59.29
2018-12-15T13:20:24.690Z,59.70
2018-12-15T13:25:36.686Z,60.09
2018-12-15T13:30:48.655Z,60.89
2018-12-15T13:36:20.031Z,60.76
2018-12-15T13:41:31.371Z,60.82
2018-12-15T13:49:24.534Z,61.15
2018-12-15T13:54:36.790Z,61.17
2018-12-15T13:59:48.792Z,61.23
2018-12-15T14:05:00.665Z,61.16
2018-12-15T14:10:12.545Z,61.54
2018-12-15T14:15:24.320Z,61.34
2018-12-15T14:20:37.649Z,61.07
2018-12-15T14:25:49.027Z,61.10
2018-12-15T14:30:13.898Z,61.84
2018-12-15T14:35:25.035Z,62.00
2018-12-15T14:40:36.593Z,61.82
2018-12-15T14:45:47.683Z,62.48
2018-12-15T14:50:59.604Z,62.77
2018-12-15T14:53:29.686Z,63.03
2018-12-15T14:58:42.633Z,63.13
2018-12-15T15:03:53.658Z,63.35
2018-12-15T15:09:08.425Z,63.60
2018-12-15T15:14:20.702Z,63.64
2018-12-15T15:19:33.907Z,63.94
2018-12-15T15:24:45.026Z,64.23
2018-12-15T15:29:57.788Z,64.03
2018-12-15T15:35:10.643Z,64.27
2018-12-15T15:40:23.663Z,64.47
2018-12-15T15:45:35.687Z,64.57
2018-12-15T15:50:49.040Z,64.38
2018-12-15T15:56:03.238Z,64.51
2018-12-15T16:01:14.877Z,64.46
2018-12-15T16:06:28.663Z,64.43
2018-12-15T16:11:39.539Z,64.49
2018-12-15T16:16:52.359Z,64.44
2018-12-15T16:22:03.731Z,64.26
2018-12-15T16:27:16.697Z,64.17
2018-12-15T16:32:27.910Z,64.26
2018-12-15T16:37:41.654Z,64.28
2018-12-15T16:42:54.350Z,64.28
2018-12-15T16:48:07.759Z,64.14
2018-12-15T16:53:19.383Z,64.17
2018-12-15T16:58:30.973Z,64.21
2018-12-15T17:03:43.045Z,64.09
2018-12-15T17:08:55.671Z,63.82
2018-12-15T17:14:07.703Z,64.11
2018-12-15T17:19:20.777Z,64.25
2018-12-15T17:24:32.698Z,64.18
2018-12-15T17:27:02.758Z,63.90
2018-12-15T17:32:15.550Z,64.14
2018-12-15T17:37:28.772Z,64.23
2018-12-15T17:42:40.472Z,64.53
2018-12-15T17:47:53.728Z,64.70
2018-12-15T17:53:10.894Z,64.62
2018-12-15T17:58:23.682Z,64.42
2018-12-15T18:03:35.836Z,64.29
2018-12-15T18:08:47.645Z,64.50
2018-12-15T18:13:59.501Z,64.61
2018-12-15T18:19:13.409Z,64.76
2018-12-15T18:24:38.718Z,65.03
2018-12-15T18:29:51.672Z,65.38
2018-12-15T18:35:03.421Z,65.33
2018-12-15T18:40:16.780Z,65.49
2018-12-15T18:45:27.645Z,65.38
2018-12-15T18:50:40.799Z,65.47
2018-12-15T18:55:52.041Z,65.78
2018-12-15T19:01:03.438Z,65.83
2018-12-15T19:06:16.792Z,66.08
2018-12-15T19:11:28.039Z,65.80
2018-12-15T19:16:40.669Z,66.05
2018-12-15T19:21:51.331Z,65.84
2018-12-15T19:24:22.787Z,65.77
2018-12-15T19:29:35.669Z,66.20
2018-12-15T19:34:52.401Z,65.90
2018-12-15T19:37:19.570Z,65.65
2018-12-15T19:42:32.772Z,65.53
2018-12-15T19:47:45.793Z,66.08
2018-12-15T19:52:57.691Z,66.00
2018-12-15T19:55:27.699Z,66.23
2018-12-15T20:00:40.090Z,65.72
2018-12-15T20:05:52.683Z,65.74
2018-12-15T20:11:04.036Z,65.89
2018-12-15T20:16:19.769Z,66.09
2018-12-15T20:21:35.994Z,65.84
2018-12-15T20:26:46.402Z,66.12
2018-12-15T20:31:58.634Z,65.93
2018-12-15T20:37:11.713Z,66.08
2018-12-15T20:42:24.415Z,66.06
2018-12-15T20:47:37.030Z,66.28
2018-12-15T20:52:49.675Z,66.14
2018-12-15T20:58:08.689Z,66.18
2018-12-15T21:03:19.909Z,66.00
2018-12-15T21:05:49.699Z,66.01
2018-12-15T21:11:01.379Z,66.07
2018-12-15T21:17:08.815Z,65.08
2018-12-15T21:22:20.667Z,65.32
2018-12-15T21:27:33.766Z,65.13
2018-12-15T21:32:46.781Z,64.81
2018-12-15T21:37:59.657Z,65.34
2018-12-15T21:44:53.034Z,65.09
2018-12-15T21:50:08.338Z,64.46
2018-12-15T21:54:11.813Z,64.73
2018-12-15T21:59:24.664Z,65.11
2018-12-15T22:04:37.986Z,65.07
2018-12-15T22:09:51.677Z,65.19
2018-12-15T22:15:04.049Z,64.50
2018-12-15T22:20:18.363Z,63.78
2018-12-15T22:25:30.297Z,63.30
2018-12-15T22:30:43.845Z,63.57
2018-12-15T22:35:56.747Z,62.14
2018-12-15T22:41:08.296Z,61.07
2018-12-15T22:46:20.663Z,59.13
2018-12-15T22:51:31.292Z,58.63
2018-12-15T22:56:44.689Z,58.27
2018-12-15T23:01:54.944Z,59.57
2018-12-15T23:07:08.372Z,60.00
2018-12-15T23:12:19.715Z,60.48
2018-12-15T23:17:33.630Z,60.58
2018-12-15T23:22:46.770Z,61.56
2018-12-15T23:28:00.414Z,61.86
2018-12-15T23:33:11.325Z,61.64
2018-12-15T23:38:24.374Z,61.47
2018-12-15T23:43:42.036Z,61.78
2018-12-15T23:48:54.819Z,61.52
2018-12-15T23:54:06.398Z,60.93
2018-12-15T23:59:19.814Z,60.57
